createdAt,value
2023-01-25T00:01:18.775Z,95.08
2023-01-25T00:03:47.208Z,95.19
2023-01-25T00:06:16.685Z,95.01
2023-01-25T00:08:44.727Z,95.32
2023-01-25T00:11:12.744Z,97.25
2023-01-25T00:13:40.773Z,95.57
2023-01-25T00:16:09.194Z,95.89
2023-01-25T00:18:37.529Z,95.26
2023-01-25T00:21:13.743Z,94.36
2023-01-25T00:23:43.211Z,95.88
2023-01-25T00:26:11.566Z,97.16
2023-01-25T00:28:39.866Z,97.29
2023-01-25T00:31:09.528Z,97.39
2023-01-25T00:33:45.460Z,97.76
2023-01-25T00:36:41.934Z,99.69
2023-01-25T00:39:14.680Z,99.15
2023-01-25T00:41:42.752Z,99.65
2023-01-25T00:44:11.237Z,99.12
2023-01-25T00:46:39.623Z,98.70
2023-01-25T00:49:07.731Z,99.47
2023-01-25T00:51:35.790Z,98.81
2023-01-25T00:54:03.785Z,99.29
2023-01-25T00:56:33.306Z,97.96
2023-01-25T00:59:01.253Z,99.84
2023-01-25T01:01:29.281Z,100.00
2023-01-25T01:03:57.451Z,100.00
2023-01-25T01:06:25.715Z,100.00
2023-01-25T01:08:53.861Z,100.00
2023-01-25T01:11:21.962Z,100.00
2023-01-25T01:13:51.627Z,100.00
2023-01-25T01:16:19.620Z,100.00
2023-01-25T01:18:47.684Z,100.00
2023-01-25T01:21:15.911Z,100.00
2023-01-25T01:23:44.387Z,100.00
2023-01-25T01:26:15.292Z,100.00
2023-01-25T01:28:44.359Z,100.00
2023-01-25T01:31:15.392Z,100.00
2023-01-25T01:33:43.615Z,100.00
2023-01-25T01:36:13.987Z,100.00
2023-01-25T01:38:42.846Z,100.00
2023-01-25T01:41:12.590Z,100.00
2023-01-25T01:43:40.812Z,100.00
2023-01-25T01:46:15.822Z,100.00
2023-01-25T01:48:49.100Z,100.00
2023-01-25T01:51:23.418Z,100.00
2023-01-25T01:53:54.072Z,100.00
2023-01-25T01:56:28.041Z,100.00
2023-01-25T01:58:59.171Z,100.00
2023-01-25T02:01:29.210Z,100.00
2023-01-25T02:03:57.567Z,100.00
2023-01-25T02:06:35.132Z,100.00
2023-01-25T02:09:03.222Z,100.00
2023-01-25T02:11:34.032Z,100.00
2023-01-25T02:14:03.203Z,100.00
2023-01-25T02:16:32.820Z,100.00
2023-01-25T02:19:03.770Z,100.00
2023-01-25T02:21:39.200Z,100.00
2023-01-25T02:24:13.785Z,100.00
2023-01-25T02:26:43.331Z,100.00
2023-01-25T02:29:12.097Z,100.00
2023-01-25T02:31:40.276Z,100.00
2023-01-25T02:34:08.324Z,100.00
2023-01-25T02:36:36.664Z,100.00
2023-01-25T02:39:09.013Z,100.00
2023-01-25T02:41:39.342Z,100.00
2023-01-25T02:44:12.817Z,100.00
2023-01-25T02:46:42.647Z,100.00
2023-01-25T02:49:11.661Z,100.00
2023-01-25T02:51:42.494Z,100.00
2023-01-25T02:54:12.619Z,99.83
2023-01-25T02:56:41.906Z,98.79
2023-01-25T02:59:13.562Z,99.83
2023-01-25T03:01:44.906Z,100.00
2023-01-25T03:04:12.958Z,98.19
2023-01-25T03:06:41.255Z,97.37
2023-01-25T03:09:11.722Z,98.40
2023-01-25T03:11:39.952Z,98.28
2023-01-25T03:14:08.020Z,99.84
2023-01-25T03:16:37.602Z,99.16
2023-01-25T03:19:05.629Z,98.82
2023-01-25T03:21:33.619Z,99.46
2023-01-25T03:24:03.316Z,97.60
2023-01-25T03:26:31.651Z,97.39
2023-01-25T03:28:59.861Z,97.64
2023-01-25T03:31:28.048Z,97.16
2023-01-25T03:33:57.624Z,97.00
2023-01-25T03:36:25.826Z,96.32
2023-01-25T03:38:53.871Z,96.37
2023-01-25T03:41:21.942Z,95.77
2023-01-25T03:43:49.910Z,95.43
2023-01-25T03:46:17.872Z,96.21
2023-01-25T03:48:46.087Z,95.99
2023-01-25T03:51:15.528Z,93.88
2023-01-25T03:53:43.448Z,95.06
2023-01-25T03:56:17.676Z,95.39
2023-01-25T03:58:45.683Z,96.80
2023-01-25T04:01:13.935Z,97.03
2023-01-25T04:03:42.028Z,95.00
2023-01-25T04:06:10.131Z,93.53
2023-01-25T04:08:39.941Z,93.49
2023-01-25T04:11:10.636Z,93.04
2023-01-25T04:13:39.803Z,92.94
2023-01-25T04:16:09.766Z,92.27
2023-01-25T04:18:38.163Z,92.32
2023-01-25T04:21:06.447Z,92.62
2023-01-25T04:23:34.437Z,92.72
2023-01-25T04:26:06.377Z,93.31
2023-01-25T04:28:36.377Z,93.56
2023-01-25T04:31:06.276Z,93.81
2023-01-25T04:33:34.832Z,93.18
2023-01-25T04:36:02.930Z,92.26
2023-01-25T04:38:30.947Z,92.61
2023-01-25T04:40:59.006Z,92.26
2023-01-25T04:43:28.492Z,91.90
2023-01-25T04:45:56.502Z,92.15
2023-01-25T04:48:24.552Z,92.30
2023-01-25T04:50:52.666Z,92.19
2023-01-25T04:53:20.685Z,92.21
2023-01-25T04:55:49.059Z,92.28
2023-01-25T04:58:17.219Z,91.33
2023-01-25T05:00:46.982Z,91.18
2023-01-25T05:03:15.033Z,90.08
2023-01-25T05:05:47.428Z,90.15
2023-01-25T05:08:15.436Z,92.36
2023-01-25T05:10:43.452Z,92.52
2023-01-25T05:13:11.510Z,90.71
2023-01-25T05:15:40.072Z,89.94
2023-01-25T05:18:09.528Z,89.49
2023-01-25T05:20:37.627Z,88.39
2023-01-25T05:23:05.834Z,88.85
2023-01-25T05:25:51.082Z,88.90
2023-01-25T05:28:19.121Z,88.90
2023-01-25T05:30:47.213Z,90.63
2023-01-25T05:33:16.677Z,92.74
2023-01-25T05:35:44.707Z,93.82
2023-01-25T05:38:12.739Z,93.14
2023-01-25T05:40:40.741Z,90.97
2023-01-25T05:43:08.720Z,89.92
2023-01-25T05:45:37.051Z,90.02
2023-01-25T05:48:05.225Z,89.92
2023-01-25T05:50:34.885Z,88.89
2023-01-25T05:53:02.920Z,88.97
2023-01-25T05:55:30.918Z,91.74
2023-01-25T05:57:58.942Z,92.26
2023-01-25T06:00:27.147Z,91.47
2023-01-25T06:02:57.032Z,90.93
2023-01-25T06:05:25.080Z,89.31
2023-01-25T06:07:54.489Z,89.67
2023-01-25T06:10:22.507Z,89.38
2023-01-25T06:12:50.526Z,89.54
2023-01-25T06:15:18.560Z,89.32
2023-01-25T06:17:46.581Z,89.14
2023-01-25T06:20:14.991Z,89.33
2023-01-25T06:22:43.072Z,89.64
2023-01-25T06:25:12.684Z,89.79
2023-01-25T06:27:40.805Z,89.87
2023-01-25T06:30:11.357Z,89.83
2023-01-25T06:32:39.452Z,90.50
2023-01-25T06:35:08.065Z,90.90
2023-01-25T06:37:36.335Z,90.86
2023-01-25T06:40:05.080Z,90.20
2023-01-25T06:42:34.510Z,91.95
2023-01-25T06:45:02.447Z,90.75
2023-01-25T06:47:30.399Z,90.42
2023-01-25T06:49:58.355Z,89.31
2023-01-25T06:52:26.292Z,89.07
2023-01-25T06:54:54.270Z,88.65
2023-01-25T06:57:22.232Z,87.62
2023-01-25T06:59:51.583Z,87.61
2023-01-25T07:02:19.568Z,86.83
2023-01-25T07:04:47.592Z,83.76
2023-01-25T07:07:15.697Z,84.95
2023-01-25T07:09:43.957Z,84.93
2023-01-25T07:12:11.895Z,85.24
2023-01-25T07:14:39.807Z,84.80
2023-01-25T07:17:09.160Z,83.20
2023-01-25T07:19:37.470Z,83.99
2023-01-25T07:22:05.502Z,83.84
2023-01-25T07:24:33.667Z,83.31
2023-01-25T07:27:01.618Z,84.18
2023-01-25T07:29:29.974Z,83.47
2023-01-25T07:31:58.037Z,81.98
2023-01-25T07:34:29.063Z,83.22
2023-01-25T07:36:57.063Z,82.13
2023-01-25T07:39:25.134Z,82.86
2023-01-25T07:41:53.177Z,83.16
2023-01-25T07:44:21.397Z,82.59
2023-01-25T07:46:49.649Z,82.96
2023-01-25T07:49:17.617Z,81.76
2023-01-25T07:51:47.030Z,80.75
2023-01-25T07:54:15.180Z,81.67
2023-01-25T07:56:43.215Z,82.66
2023-01-25T07:59:11.930Z,82.04
2023-01-25T08:01:40.649Z,81.29
2023-01-25T08:04:09.483Z,81.63
2023-01-25T08:06:40.153Z,80.54
2023-01-25T08:09:14.291Z,80.29
2023-01-25T08:11:43.468Z,80.08
2023-01-25T08:14:11.779Z,80.59
2023-01-25T08:16:39.962Z,82.79
2023-01-25T08:19:08.228Z,81.48
2023-01-25T08:21:36.521Z,82.84
2023-01-25T08:24:06.550Z,82.56
2023-01-25T08:26:37.118Z,82.50
2023-01-25T08:29:09.071Z,83.38
2023-01-25T08:31:37.895Z,82.97
2023-01-25T08:34:06.946Z,80.65
2023-01-25T08:36:35.810Z,79.60
2023-01-25T08:39:06.927Z,81.93
2023-01-25T08:41:37.399Z,82.25
2023-01-25T08:44:06.262Z,81.79
2023-01-25T08:46:35.203Z,83.74
2023-01-25T08:49:04.097Z,84.82
2023-01-25T08:51:33.785Z,82.67
2023-01-25T08:54:06.173Z,81.78
2023-01-25T08:56:37.840Z,83.87
2023-01-25T08:59:06.222Z,82.50
2023-01-25T09:01:34.213Z,83.97
2023-01-25T09:04:02.452Z,83.33
2023-01-25T09:06:30.589Z,84.20
2023-01-25T09:09:00.282Z,84.89
2023-01-25T09:11:28.557Z,81.47
2023-01-25T09:13:58.311Z,83.34
2023-01-25T09:16:30.776Z,83.20
2023-01-25T09:19:00.250Z,82.43
2023-01-25T09:21:29.301Z,82.70
2023-01-25T09:24:06.088Z,80.97
2023-01-25T09:26:36.010Z,82.93
2023-01-25T09:29:08.130Z,81.81
2023-01-25T09:31:36.889Z,82.24
2023-01-25T09:34:04.896Z,81.91
2023-01-25T09:36:32.962Z,81.82
2023-01-25T09:39:01.011Z,81.40
2023-01-25T09:41:43.653Z,84.16
2023-01-25T09:44:25.311Z,84.44
2023-01-25T09:46:56.393Z,84.72
2023-01-25T09:49:36.317Z,84.22
2023-01-25T09:52:23.410Z,84.66
2023-01-25T09:54:51.547Z,84.45
2023-01-25T09:57:24.349Z,85.29
2023-01-25T09:59:55.188Z,86.28
2023-01-25T10:02:37.315Z,86.81
2023-01-25T10:05:13.404Z,86.42
2023-01-25T10:07:53.789Z,85.67
2023-01-25T10:10:27.634Z,85.24
2023-01-25T10:12:55.635Z,86.43
2023-01-25T10:15:30.332Z,85.84
2023-01-25T10:18:05.210Z,83.03
2023-01-25T10:20:40.839Z,82.43
2023-01-25T10:23:35.417Z,82.94
2023-01-25T10:26:11.671Z,83.77
2023-01-25T10:28:46.123Z,83.29
2023-01-25T10:31:20.192Z,84.64
2023-01-25T10:33:50.042Z,84.01
2023-01-25T10:36:22.842Z,84.35
2023-01-25T10:38:57.516Z,84.83
2023-01-25T10:41:32.730Z,84.70
2023-01-25T10:44:14.579Z,84.39
2023-01-25T10:46:52.277Z,84.18
2023-01-25T10:49:25.325Z,84.31
2023-01-25T10:51:53.376Z,84.47
2023-01-25T10:54:24.043Z,84.88
2023-01-25T10:56:53.540Z,85.85
2023-01-25T10:59:25.649Z,87.45
2023-01-25T11:01:55.403Z,87.01
2023-01-25T11:04:30.410Z,87.62
2023-01-25T11:06:59.630Z,86.15
2023-01-25T11:09:36.993Z,87.97
2023-01-25T11:12:08.549Z,86.44
2023-01-25T11:14:36.542Z,86.39
2023-01-25T11:17:07.326Z,86.70
2023-01-25T11:19:37.639Z,86.12
2023-01-25T11:22:07.243Z,86.98
2023-01-25T11:24:36.815Z,86.75
2023-01-25T11:27:29.193Z,87.00
2023-01-25T11:30:13.117Z,85.87
2023-01-25T11:32:42.962Z,87.14
2023-01-25T11:35:15.982Z,87.53
2023-01-25T11:38:02.570Z,86.08
2023-01-25T11:40:39.271Z,85.58
2023-01-25T11:43:18.308Z,85.05
2023-01-25T11:46:16.973Z,85.53
2023-01-25T11:49:19.100Z,85.09
2023-01-25T11:51:55.862Z,85.79
2023-01-25T11:54:40.553Z,85.21
2023-01-25T11:57:15.668Z,84.57
2023-01-25T11:59:57.022Z,85.24
2023-01-25T12:03:03.522Z,84.59
2023-01-25T12:05:55.083Z,84.69
2023-01-25T12:08:42.109Z,84.90
2023-01-25T12:11:19.804Z,83.39
2023-01-25T12:13:56.750Z,83.63
2023-01-25T12:16:44.882Z,83.14
2023-01-25T12:19:55.929Z,83.27
2023-01-25T12:22:59.353Z,83.29
2023-01-25T12:25:33.887Z,83.89
2023-01-25T12:28:13.871Z,83.20
2023-01-25T12:30:52.562Z,81.86
2023-01-25T12:33:26.331Z,82.74
2023-01-25T12:36:01.380Z,82.98
2023-01-25T12:38:36.951Z,83.68
2023-01-25T12:41:13.103Z,82.93
2023-01-25T12:43:47.632Z,82.75
2023-01-25T12:46:22.729Z,83.55
2023-01-25T12:48:54.886Z,83.38
2023-01-25T12:51:30.228Z,84.37
2023-01-25T12:54:02.214Z,84.31
2023-01-25T12:56:44.064Z,84.44
2023-01-25T12:59:19.874Z,83.90
2023-01-25T13:01:53.754Z,82.72
2023-01-25T13:04:38.473Z,82.42
2023-01-25T13:07:11.861Z,83.73
2023-01-25T13:09:46.739Z,83.34
2023-01-25T13:12:15.636Z,82.22
2023-01-25T13:14:44.293Z,82.40
2023-01-25T13:17:22.545Z,82.05
2023-01-25T13:19:51.731Z,83.36
2023-01-25T13:22:55.032Z,82.24
2023-01-25T13:25:25.639Z,82.66
2023-01-25T13:27:54.129Z,82.97
2023-01-25T13:30:32.630Z,83.29
2023-01-25T13:33:03.576Z,83.58
2023-01-25T13:35:37.659Z,84.30
2023-01-25T13:38:25.748Z,84.76
2023-01-25T13:41:12.425Z,83.74
2023-01-25T13:43:43.541Z,83.85
2023-01-25T13:46:15.911Z,83.90
2023-01-25T13:48:53.344Z,84.50
2023-01-25T13:51:21.986Z,83.50
2023-01-25T13:54:00.821Z,84.97
2023-01-25T13:56:33.202Z,85.52
2023-01-25T13:59:01.601Z,86.46
2023-01-25T14:01:32.618Z,85.95
2023-01-25T14:04:03.499Z,85.91
2023-01-25T14:06:34.703Z,85.94
2023-01-25T14:09:07.758Z,85.40
2023-01-25T14:11:44.290Z,85.11
2023-01-25T14:14:21.660Z,85.30
2023-01-25T14:19:38.237Z,85.18
2023-01-25T14:22:22.762Z,85.98
2023-01-25T14:25:07.321Z,86.22
2023-01-25T14:27:38.087Z,85.74
2023-01-25T14:30:07.079Z,85.94
2023-01-25T14:32:37.015Z,86.62
2023-01-25T14:35:42.818Z,86.33
2023-01-25T14:38:29.942Z,85.62
2023-01-25T14:41:02.354Z,84.82
2023-01-25T14:43:32.812Z,85.91
2023-01-25T14:46:00.884Z,85.02
2023-01-25T14:48:41.296Z,84.78
2023-01-25T14:51:28.881Z,85.31
2023-01-25T14:54:02.847Z,84.04
2023-01-25T14:56:43.690Z,85.71
2023-01-25T14:59:41.631Z,85.68
2023-01-25T15:02:22.922Z,86.71
2023-01-25T15:04:57.210Z,86.29
2023-01-25T15:07:43.227Z,86.92
2023-01-25T15:10:18.838Z,87.63
2023-01-25T15:13:12.850Z,87.63
2023-01-25T15:15:54.723Z,89.15
2023-01-25T15:18:45.306Z,88.69
2023-01-25T15:21:14.845Z,88.68
2023-01-25T15:23:44.016Z,89.56
2023-01-25T15:26:20.277Z,89.44
2023-01-25T15:28:49.112Z,88.46
2023-01-25T15:31:20.671Z,88.66
2023-01-25T15:33:49.151Z,89.40
2023-01-25T15:36:17.918Z,89.05
2023-01-25T15:38:46.330Z,88.56
2023-01-25T15:41:14.650Z,86.94
2023-01-25T15:43:43.371Z,87.52
2023-01-25T15:46:16.857Z,88.31
2023-01-25T15:48:47.605Z,88.21
2023-01-25T15:51:15.745Z,87.58
2023-01-25T15:53:44.210Z,87.71
2023-01-25T15:56:15.796Z,87.73
2023-01-25T15:58:47.215Z,89.31
2023-01-25T16:01:15.857Z,87.31
2023-01-25T16:03:43.861Z,87.68
2023-01-25T16:06:28.653Z,86.82
2023-01-25T16:08:58.983Z,87.77
2023-01-25T16:11:27.712Z,87.23
2023-01-25T16:13:58.178Z,86.74
2023-01-25T16:16:27.242Z,86.23
2023-01-25T16:18:55.285Z,85.87
2023-01-25T16:21:26.410Z,86.83
2023-01-25T16:23:54.485Z,87.23
2023-01-25T16:26:25.999Z,86.91
2023-01-25T16:28:54.523Z,87.43
2023-01-25T16:31:32.357Z,86.54
2023-01-25T16:34:01.597Z,85.94
2023-01-25T16:36:31.604Z,86.76
2023-01-25T16:39:09.877Z,86.54
2023-01-25T16:41:38.622Z,86.75
2023-01-25T16:44:07.028Z,87.06
2023-01-25T16:46:35.415Z,87.24
2023-01-25T16:49:07.137Z,88.74
2023-01-25T16:51:38.516Z,87.62
2023-01-25T16:54:06.833Z,87.63
2023-01-25T16:56:35.300Z,87.66
2023-01-25T16:59:05.737Z,87.13
2023-01-25T17:01:34.577Z,88.93
2023-01-25T17:04:02.890Z,87.79
2023-01-25T17:06:33.612Z,86.94
2023-01-25T17:09:20.593Z,86.67
2023-01-25T17:11:50.732Z,86.68
2023-01-25T17:14:20.401Z,86.74
2023-01-25T17:16:51.872Z,85.84
2023-01-25T17:19:21.001Z,85.39
2023-01-25T17:21:50.149Z,84.56
2023-01-25T17:24:22.354Z,84.96
2023-01-25T17:26:51.157Z,85.26
2023-01-25T17:29:19.305Z,84.92
2023-01-25T17:31:47.398Z,82.94
2023-01-25T17:34:19.456Z,82.78
2023-01-25T17:36:47.898Z,83.55
2023-01-25T17:39:17.453Z,84.06
2023-01-25T17:41:48.742Z,83.88
2023-01-25T17:44:21.306Z,83.10
2023-01-25T17:46:50.409Z,83.81
2023-01-25T17:49:18.777Z,84.52
2023-01-25T17:51:47.041Z,83.60
2023-01-25T17:54:15.174Z,84.19
2023-01-25T17:56:43.587Z,85.27
2023-01-25T17:59:13.041Z,85.51
2023-01-25T18:01:42.951Z,86.88
2023-01-25T18:04:13.540Z,87.63
2023-01-25T18:06:42.292Z,86.78
2023-01-25T18:09:11.381Z,88.40
2023-01-25T18:11:41.462Z,87.70
2023-01-25T18:14:12.901Z,87.81
2023-01-25T18:16:43.139Z,88.61
2023-01-25T18:19:12.748Z,87.78
2023-01-25T18:21:42.238Z,88.89
2023-01-25T18:24:26.721Z,89.34
2023-01-25T18:27:02.184Z,89.68
2023-01-25T18:29:37.809Z,91.71
2023-01-25T18:32:08.530Z,92.48
2023-01-25T18:34:36.889Z,92.35
2023-01-25T18:37:19.732Z,93.13
2023-01-25T18:39:49.582Z,94.19
2023-01-25T18:42:18.199Z,93.88
2023-01-25T18:44:49.434Z,94.92
2023-01-25T18:47:20.363Z,93.48
2023-01-25T18:49:49.616Z,94.44
2023-01-25T18:52:18.678Z,97.04
2023-01-25T18:54:47.302Z,94.73
2023-01-25T18:57:16.579Z,93.17
2023-01-25T18:59:45.473Z,91.58
2023-01-25T19:02:15.598Z,92.49
2023-01-25T19:04:46.201Z,92.10
2023-01-25T19:07:15.231Z,91.50
2023-01-25T19:09:44.182Z,92.50
2023-01-25T19:12:13.976Z,91.41
2023-01-25T19:14:43.017Z,91.28
2023-01-25T19:17:11.657Z,93.54
2023-01-25T19:19:40.284Z,92.90
2023-01-25T19:22:10.751Z,92.44
2023-01-25T19:24:39.481Z,92.16
2023-01-25T19:27:08.390Z,92.73
2023-01-25T19:29:37.544Z,93.66
2023-01-25T19:32:06.895Z,93.59
2023-01-25T19:34:35.547Z,94.92
2023-01-25T19:37:04.613Z,94.13
2023-01-25T19:39:34.548Z,94.02
2023-01-25T19:42:03.196Z,93.40
2023-01-25T19:44:32.316Z,93.30
2023-01-25T19:47:01.238Z,94.37
2023-01-25T19:49:30.779Z,92.31
2023-01-25T19:52:00.443Z,93.43
2023-01-25T19:54:29.077Z,93.33
2023-01-25T19:56:59.378Z,93.60
2023-01-25T19:59:29.489Z,93.95
2023-01-25T20:01:58.460Z,94.80
2023-01-25T20:04:27.585Z,93.49
2023-01-25T20:06:56.003Z,92.83
2023-01-25T20:09:28.279Z,93.07
2023-01-25T20:12:01.123Z,91.43
2023-01-25T20:14:29.423Z,91.75
2023-01-25T20:16:57.747Z,92.04
2023-01-25T20:19:26.449Z,92.41
2023-01-25T20:21:55.443Z,93.35
2023-01-25T20:24:23.864Z,92.72
2023-01-25T20:26:52.779Z,93.75
2023-01-25T20:29:23.981Z,93.30
2023-01-25T20:31:52.133Z,96.28
2023-01-25T20:34:22.221Z,95.85
2023-01-25T20:36:51.344Z,95.09
2023-01-25T20:39:21.159Z,94.35
2023-01-25T20:41:51.585Z,93.49
2023-01-25T20:44:19.906Z,93.09
2023-01-25T20:46:50.215Z,92.42
2023-01-25T20:49:20.066Z,92.93
2023-01-25T20:51:48.691Z,93.29
2023-01-25T20:54:18.357Z,93.33
2023-01-25T20:56:48.195Z,94.29
2023-01-25T20:59:17.873Z,94.52
2023-01-25T21:01:46.898Z,92.57
2023-01-25T21:04:16.850Z,93.34
2023-01-25T21:06:44.887Z,93.68
2023-01-25T21:09:13.403Z,95.06
2023-01-25T21:11:41.489Z,95.21
2023-01-25T21:14:09.927Z,95.27
2023-01-25T21:16:37.975Z,95.67
2023-01-25T21:19:07.815Z,96.01
2023-01-25T21:21:38.648Z,96.22
2023-01-25T21:24:07.613Z,95.74
2023-01-25T21:26:37.249Z,95.25
2023-01-25T21:29:06.602Z,95.91
2023-01-25T21:31:36.115Z,95.07
2023-01-25T21:34:05.441Z,95.46
2023-01-25T21:36:33.813Z,94.13
2023-01-25T21:39:03.783Z,94.60
2023-01-25T21:41:34.001Z,94.60
2023-01-25T21:44:20.312Z,94.18
2023-01-25T21:47:15.753Z,94.49
2023-01-25T21:50:08.546Z,94.16
2023-01-25T21:52:37.344Z,95.03
2023-01-25T21:55:09.007Z,93.97
2023-01-25T21:57:41.034Z,96.67
2023-01-25T22:00:10.784Z,97.71
2023-01-25T22:02:39.382Z,97.28
2023-01-25T22:05:07.884Z,98.88
2023-01-25T22:07:35.906Z,98.92
2023-01-25T22:10:04.404Z,98.46
2023-01-25T22:12:33.898Z,97.69
2023-01-25T22:15:02.072Z,98.18
2023-01-25T22:17:30.420Z,98.27
2023-01-25T22:19:58.446Z,98.84
2023-01-25T22:22:26.469Z,99.76
2023-01-25T22:24:54.675Z,99.69
2023-01-25T22:27:38.414Z,99.04
2023-01-25T22:30:08.218Z,98.33
2023-01-25T22:32:36.427Z,99.31
2023-01-25T22:35:04.757Z,100.00
2023-01-25T22:37:36.107Z,100.00
2023-01-25T22:40:04.630Z,100.00
2023-01-25T22:42:35.081Z,100.00
2023-01-25T22:45:03.167Z,100.00
2023-01-25T22:47:31.236Z,100.00
2023-01-25T22:49:59.277Z,100.00
2023-01-25T22:52:27.183Z,100.00
2023-01-25T22:54:55.227Z,100.00
2023-01-25T22:57:23.257Z,100.00
2023-01-25T22:59:52.726Z,100.00
2023-01-25T23:02:21.072Z,100.00
2023-01-25T23:04:49.167Z,100.00
2023-01-25T23:07:19.114Z,100.00
2023-01-25T23:09:48.522Z,100.00
2023-01-25T23:12:16.730Z,100.00
2023-01-25T23:14:54.194Z,100.00
2023-01-25T23:17:42.446Z,100.00
2023-01-25T23:20:13.405Z,100.00
2023-01-25T23:22:41.756Z,100.00
2023-01-25T23:25:11.316Z,100.00
2023-01-25T23:27:39.632Z,100.00
2023-01-25T23:30:09.802Z,100.00
2023-01-25T23:32:39.753Z,100.00
2023-01-25T23:35:08.903Z,100.00
2023-01-25T23:37:36.974Z,100.00
2023-01-25T23:40:09.182Z,100.00
2023-01-25T23:42:37.786Z,100.00
2023-01-25T23:45:06.757Z,100.00
2023-01-25T23:47:35.142Z,100.00
2023-01-25T23:50:05.039Z,100.00
2023-01-25T23:52:33.177Z,100.00
2023-01-25T23:55:01.260Z,100.00
2023-01-25T23:57:29.382Z,100.00
2023-01-25T23:59:57.407Z,100.00
